sensor_id;sensor_type;location;lat;lon;timestamp;pressure;altitude;pressure_sealevel;temperature;humidity
83836;BME280;73859;40.830;43.828;2023-11-21T00:00:00;82834.88;;;3.22;68.06
83836;BME280;73859;40.830;43.828;2023-11-21T00:02:29;82821.66;;;2.97;68.71
83836;BME280;73859;40.830;43.828;2023-11-21T00:04:57;82832.75;;;3.13;68.29
83836;BME280;73859;40.830;43.828;2023-11-21T00:07:24;82860.34;;;3.15;68.67
83836;BME280;73859;40.830;43.828;2023-11-21T00:09:52;82868.69;;;3.15;68.80
83836;BME280;73859;40.830;43.828;2023-11-21T00:12:19;82870.16;;;3.11;68.77
83836;BME280;73859;40.830;43.828;2023-11-21T00:14:47;82880.97;;;3.04;69.10
83836;BME280;73859;40.830;43.828;2023-11-21T00:17:14;82870.28;;;2.66;68.69
83836;BME280;73859;40.830;43.828;2023-11-21T00:19:42;82880.16;;;2.43;69.18
83836;BME280;73859;40.830;43.828;2023-11-21T00:22:10;82853.91;;;2.16;70.18
83836;BME280;73859;40.830;43.828;2023-11-21T00:24:37;82871.31;;;2.31;71.13
83836;BME280;73859;40.830;43.828;2023-11-21T00:27:04;82879.28;;;2.54;71.13
83836;BME280;73859;40.830;43.828;2023-11-21T00:29:33;82887.34;;;2.71;70.62
83836;BME280;73859;40.830;43.828;2023-11-21T00:32:00;82884.81;;;2.84;70.30
83836;BME280;73859;40.830;43.828;2023-11-21T00:34:27;82879.44;;;2.87;70.10
83836;BME280;73859;40.830;43.828;2023-11-21T00:36:55;82878.91;;;2.89;69.41
83836;BME280;73859;40.830;43.828;2023-11-21T00:39:22;82888.44;;;2.75;69.33
83836;BME280;73859;40.830;43.828;2023-11-21T00:41:50;82910.31;;;2.71;70.19
83836;BME280;73859;40.830;43.828;2023-11-21T00:44:18;82892.34;;;2.63;70.74
83836;BME280;73859;40.830;43.828;2023-11-21T00:46:45;82904.63;;;2.78;71.37
83836;BME280;73859;40.830;43.828;2023-11-21T00:49:13;82907.19;;;2.78;71.25
83836;BME280;73859;40.830;43.828;2023-11-21T00:51:40;82908.56;;;2.92;71.05
83836;BME280;73859;40.830;43.828;2023-11-21T00:54:07;82918.59;;;3.03;71.02
83836;BME280;73859;40.830;43.828;2023-11-21T00:56:35;82922.72;;;3.06;71.19
83836;BME280;73859;40.830;43.828;2023-11-21T00:59:02;82925.38;;;3.14;71.41
83836;BME280;73859;40.830;43.828;2023-11-21T01:01:31;82916.06;;;3.16;71.31
83836;BME280;73859;40.830;43.828;2023-11-21T01:03:59;82915.75;;;3.20;70.53
83836;BME280;73859;40.830;43.828;2023-11-21T01:06:27;82912.91;;;3.23;70.22
83836;BME280;73859;40.830;43.828;2023-11-21T01:08:54;82904.66;;;3.30;69.95
83836;BME280;73859;40.830;43.828;2023-11-21T01:11:22;82897.88;;;3.33;69.79
83836;BME280;73859;40.830;43.828;2023-11-21T01:13:49;82909.34;;;3.39;69.74
83836;BME280;73859;40.830;43.828;2023-11-21T01:16:16;82917.91;;;3.42;70.08
83836;BME280;73859;40.830;43.828;2023-11-21T01:18:44;82900.72;;;3.29;70.27
83836;BME280;73859;40.830;43.828;2023-11-21T01:21:12;82913.09;;;3.38;70.19
83836;BME280;73859;40.830;43.828;2023-11-21T01:23:39;82897.78;;;3.25;69.73
83836;BME280;73859;40.830;43.828;2023-11-21T01:26:06;82906.44;;;3.22;69.24
83836;BME280;73859;40.830;43.828;2023-11-21T01:28:36;82908.19;;;3.14;68.59
83836;BME280;73859;40.830;43.828;2023-11-21T01:31:03;82909.38;;;3.13;68.09
83836;BME280;73859;40.830;43.828;2023-11-21T01:33:31;82908.00;;;3.12;68.51
83836;BME280;73859;40.830;43.828;2023-11-21T01:35:58;82891.09;;;3.09;68.52
83836;BME280;73859;40.830;43.828;2023-11-21T01:38:26;82891.78;;;2.96;68.60
83836;BME280;73859;40.830;43.828;2023-11-21T01:40:54;82896.78;;;2.89;69.16
83836;BME280;73859;40.830;43.828;2023-11-21T01:43:21;82917.44;;;2.91;68.70
83836;BME280;73859;40.830;43.828;2023-11-21T01:45:49;82893.91;;;2.66;69.31
83836;BME280;73859;40.830;43.828;2023-11-21T01:48:16;82902.88;;;2.73;69.29
83836;BME280;73859;40.830;43.828;2023-11-21T01:50:44;82932.13;;;2.72;68.70
83836;BME280;73859;40.830;43.828;2023-11-21T01:53:12;82929.75;;;2.61;69.03
83836;BME280;73859;40.830;43.828;2023-11-21T01:55:41;82947.69;;;2.55;67.67
83836;BME280;73859;40.830;43.828;2023-11-21T01:58:10;82941.06;;;2.33;67.83
83836;BME280;73859;40.830;43.828;2023-11-21T02:00:39;82953.72;;;2.26;67.52
83836;BME280;73859;40.830;43.828;2023-11-21T02:03:07;82944.97;;;2.21;67.46
83836;BME280;73859;40.830;43.828;2023-11-21T02:05:35;82943.78;;;2.22;66.52
83836;BME280;73859;40.830;43.828;2023-11-21T02:08:02;82955.00;;;2.32;67.53
83836;BME280;73859;40.830;43.828;2023-11-21T02:10:31;82957.56;;;2.32;67.25
83836;BME280;73859;40.830;43.828;2023-11-21T02:12:59;82958.88;;;2.20;68.25
83836;BME280;73859;40.830;43.828;2023-11-21T02:15:30;82970.78;;;2.31;68.80
83836;BME280;73859;40.830;43.828;2023-11-21T02:17:57;82969.03;;;2.26;69.28
83836;BME280;73859;40.830;43.828;2023-11-21T02:20:26;82985.28;;;2.23;69.50
83836;BME280;73859;40.830;43.828;2023-11-21T02:22:57;82989.97;;;2.19;69.73
83836;BME280;73859;40.830;43.828;2023-11-21T02:25:29;82997.63;;;2.19;70.53
83836;BME280;73859;40.830;43.828;2023-11-21T02:28:02;83002.72;;;2.19;70.45
83836;BME280;73859;40.830;43.828;2023-11-21T02:30:30;83004.19;;;2.14;70.66
83836;BME280;73859;40.830;43.828;2023-11-21T02:33:01;82999.69;;;2.02;71.05
83836;BME280;73859;40.830;43.828;2023-11-21T02:35:30;83001.84;;;1.97;71.21
83836;BME280;73859;40.830;43.828;2023-11-21T02:37:59;83015.09;;;1.96;71.14
83836;BME280;73859;40.830;43.828;2023-11-21T02:40:26;83021.25;;;2.01;71.43
83836;BME280;73859;40.830;43.828;2023-11-21T02:42:54;83018.53;;;1.98;71.38
83836;BME280;73859;40.830;43.828;2023-11-21T02:45:22;83004.19;;;1.95;71.36
83836;BME280;73859;40.830;43.828;2023-11-21T02:47:51;83014.38;;;1.95;71.12
83836;BME280;73859;40.830;43.828;2023-11-21T02:50:25;83005.97;;;2.01;70.98
83836;BME280;73859;40.830;43.828;2023-11-21T02:52:52;83036.66;;;2.14;71.39
83836;BME280;73859;40.830;43.828;2023-11-21T02:55:20;83027.00;;;2.07;71.20
83836;BME280;73859;40.830;43.828;2023-11-21T02:57:48;83018.72;;;2.01;71.06
83836;BME280;73859;40.830;43.828;2023-11-21T03:00:15;83033.88;;;2.12;71.02
83836;BME280;73859;40.830;43.828;2023-11-21T03:02:43;83012.66;;;2.04;70.54
83836;BME280;73859;40.830;43.828;2023-11-21T03:05:11;83035.22;;;2.18;70.79
83836;BME280;73859;40.830;43.828;2023-11-21T03:07:39;83014.66;;;2.11;70.66
83836;BME280;73859;40.830;43.828;2023-11-21T03:10:08;83038.09;;;2.28;70.27
83836;BME280;73859;40.830;43.828;2023-11-21T03:12:38;83025.41;;;2.22;70.41
83836;BME280;73859;40.830;43.828;2023-11-21T03:15:06;83031.19;;;2.23;70.04
83836;BME280;73859;40.830;43.828;2023-11-21T03:17:34;83033.75;;;2.23;69.86
83836;BME280;73859;40.830;43.828;2023-11-21T03:20:02;83042.34;;;2.38;69.51
83836;BME280;73859;40.830;43.828;2023-11-21T03:22:33;83028.84;;;2.25;69.37
83836;BME280;73859;40.830;43.828;2023-11-21T03:25:00;83023.06;;;2.24;69.76
83836;BME280;73859;40.830;43.828;2023-11-21T03:27:28;83025.66;;;2.19;69.85
83836;BME280;73859;40.830;43.828;2023-11-21T03:29:55;83036.72;;;2.27;69.82
83836;BME280;73859;40.830;43.828;2023-11-21T03:32:23;83047.53;;;2.33;69.83
83836;BME280;73859;40.830;43.828;2023-11-21T03:34:55;83056.28;;;2.37;70.00
83836;BME280;73859;40.830;43.828;2023-11-21T03:37:24;83046.63;;;2.30;69.65
83836;BME280;73859;40.830;43.828;2023-11-21T03:39:51;83046.06;;;2.19;69.23
83836;BME280;73859;40.830;43.828;2023-11-21T03:42:19;83049.81;;;2.18;69.13
83836;BME280;73859;40.830;43.828;2023-11-21T03:44:47;83049.13;;;2.17;69.68
83836;BME280;73859;40.830;43.828;2023-11-21T03:47:15;83044.50;;;2.16;69.66
83836;BME280;73859;40.830;43.828;2023-11-21T03:49:42;83046.34;;;2.15;68.78
83836;BME280;73859;40.830;43.828;2023-11-21T03:52:10;83044.78;;;2.12;69.26
83836;BME280;73859;40.830;43.828;2023-11-21T03:54:37;83071.25;;;2.28;68.85
83836;BME280;73859;40.830;43.828;2023-11-21T03:57:05;83063.75;;;2.17;68.54
83836;BME280;73859;40.830;43.828;2023-11-21T03:59:33;83078.16;;;2.33;68.73
83836;BME280;73859;40.830;43.828;2023-11-21T04:02:00;83071.44;;;2.30;68.02
83836;BME280;73859;40.830;43.828;2023-11-21T04:04:27;83071.41;;;2.35;67.45
83836;BME280;73859;40.830;43.828;2023-11-21T04:06:55;83072.00;;;2.41;67.49
83836;BME280;73859;40.830;43.828;2023-11-21T04:09:23;83093.38;;;2.57;66.67
83836;BME280;73859;40.830;43.828;2023-11-21T04:11:52;83082.56;;;2.32;64.72
83836;BME280;73859;40.830;43.828;2023-11-21T04:14:20;83105.44;;;2.38;64.65
83836;BME280;73859;40.830;43.828;2023-11-21T04:17:23;83083.66;;;2.18;66.60
83836;BME280;73859;40.830;43.828;2023-11-21T04:19:52;83106.56;;;2.24;67.32
83836;BME280;73859;40.830;43.828;2023-11-21T04:22:21;83105.84;;;2.23;66.54
83836;BME280;73859;40.830;43.828;2023-11-21T04:24:48;83106.28;;;2.27;67.29
83836;BME280;73859;40.830;43.828;2023-11-21T04:27:16;83101.59;;;2.31;66.92
83836;BME280;73859;40.830;43.828;2023-11-21T04:29:45;83102.63;;;2.41;67.09
83836;BME280;73859;40.830;43.828;2023-11-21T04:32:12;83112.28;;;2.48;67.01
83836;BME280;73859;40.830;43.828;2023-11-21T04:34:39;83113.59;;;2.55;66.66
83836;BME280;73859;40.830;43.828;2023-11-21T04:37:07;83119.03;;;2.65;67.31
83836;BME280;73859;40.830;43.828;2023-11-21T04:39:34;83129.13;;;2.76;66.42
83836;BME280;73859;40.830;43.828;2023-11-21T04:42:02;83123.59;;;2.72;66.62
83836;BME280;73859;40.830;43.828;2023-11-21T04:44:29;83131.09;;;2.83;66.42
83836;BME280;73859;40.830;43.828;2023-11-21T04:46:56;83136.25;;;2.96;66.79
83836;BME280;73859;40.830;43.828;2023-11-21T04:49:23;83137.69;;;3.10;66.78
83836;BME280;73859;40.830;43.828;2023-11-21T04:51:51;83123.00;;;3.16;66.83
83836;BME280;73859;40.830;43.828;2023-11-21T04:54:18;83058.72;;;2.80;66.59
83836;BME280;73859;40.830;43.828;2023-11-21T04:56:45;83133.94;;;3.30;66.30
83836;BME280;73859;40.830;43.828;2023-11-21T04:59:13;83086.75;;;2.99;66.11
83836;BME280;73859;40.830;43.828;2023-11-21T05:01:40;83130.84;;;3.18;66.37
83836;BME280;73859;40.830;43.828;2023-11-21T05:04:07;83145.41;;;3.23;65.57
83836;BME280;73859;40.830;43.828;2023-11-21T05:06:35;83112.09;;;2.97;66.27
83836;BME280;73859;40.830;43.828;2023-11-21T05:09:03;83154.25;;;3.22;66.31
83836;BME280;73859;40.830;43.828;2023-11-21T05:11:30;83157.38;;;3.15;66.34
83836;BME280;73859;40.830;43.828;2023-11-21T05:13:59;83166.63;;;3.18;66.00
83836;BME280;73859;40.830;43.828;2023-11-21T05:16:28;83161.22;;;3.22;65.88
83836;BME280;73859;40.830;43.828;2023-11-21T05:18:55;83165.06;;;3.28;65.44
83836;BME280;73859;40.830;43.828;2023-11-21T05:21:28;83175.63;;;3.38;65.57
83836;BME280;73859;40.830;43.828;2023-11-21T05:23:57;83171.22;;;3.38;65.13
83836;BME280;73859;40.830;43.828;2023-11-21T05:26:24;83179.06;;;3.40;64.82
83836;BME280;73859;40.830;43.828;2023-11-21T05:28:52;83181.91;;;3.37;65.07
83836;BME280;73859;40.830;43.828;2023-11-21T05:31:19;83182.66;;;3.51;65.06
83836;BME280;73859;40.830;43.828;2023-11-21T05:33:47;83190.56;;;3.66;64.45
83836;BME280;73859;40.830;43.828;2023-11-21T05:36:14;83202.69;;;3.78;64.29
83836;BME280;73859;40.830;43.828;2023-11-21T05:38:41;83198.66;;;3.83;64.16
83836;BME280;73859;40.830;43.828;2023-11-21T05:41:09;83172.97;;;3.75;64.00
83836;BME280;73859;40.830;43.828;2023-11-21T05:43:38;83190.41;;;3.77;63.99
83836;BME280;73859;40.830;43.828;2023-11-21T05:46:05;83182.31;;;3.73;62.48
83836;BME280;73859;40.830;43.828;2023-11-21T05:48:34;83186.13;;;3.66;63.43
83836;BME280;73859;40.830;43.828;2023-11-21T05:51:06;83198.22;;;3.66;63.08
83836;BME280;73859;40.830;43.828;2023-11-21T05:53:33;83194.28;;;3.65;63.49
83836;BME280;73859;40.830;43.828;2023-11-21T05:56:00;83200.34;;;3.80;63.80
83836;BME280;73859;40.830;43.828;2023-11-21T05:58:28;83207.75;;;3.97;63.47
83836;BME280;73859;40.830;43.828;2023-11-21T06:00:55;83207.97;;;4.12;63.54
83836;BME280;73859;40.830;43.828;2023-11-21T06:03:22;83205.63;;;4.27;63.24
83836;BME280;73859;40.830;43.828;2023-11-21T06:05:50;83198.81;;;4.30;62.08
83836;BME280;73859;40.830;43.828;2023-11-21T06:08:17;83198.34;;;4.44;62.55
83836;BME280;73859;40.830;43.828;2023-11-21T06:10:45;83215.88;;;4.54;62.92
83836;BME280;73859;40.830;43.828;2023-11-21T06:13:16;83162.31;;;4.16;61.25
83836;BME280;73859;40.830;43.828;2023-11-21T06:15:47;83200.72;;;4.42;62.07
83836;BME280;73859;40.830;43.828;2023-11-21T06:18:14;83210.59;;;4.52;61.67
83836;BME280;73859;40.830;43.828;2023-11-21T06:20:41;83224.56;;;4.64;61.30
83836;BME280;73859;40.830;43.828;2023-11-21T06:23:08;83230.19;;;4.62;62.57
83836;BME280;73859;40.830;43.828;2023-11-21T06:25:36;83217.34;;;4.49;62.09
83836;BME280;73859;40.830;43.828;2023-11-21T06:28:04;83224.44;;;4.43;61.99
83836;BME280;73859;40.830;43.828;2023-11-21T06:30:32;83225.34;;;4.32;62.02
83836;BME280;73859;40.830;43.828;2023-11-21T06:32:59;83253.00;;;4.47;61.85
83836;BME280;73859;40.830;43.828;2023-11-21T06:35:27;83217.84;;;4.34;61.62
83836;BME280;73859;40.830;43.828;2023-11-21T06:37:57;83230.63;;;4.34;61.31
83836;BME280;73859;40.830;43.828;2023-11-21T06:40:24;83230.16;;;4.36;61.65
83836;BME280;73859;40.830;43.828;2023-11-21T06:42:52;83225.63;;;4.42;61.80
83836;BME280;73859;40.830;43.828;2023-11-21T06:45:19;83248.22;;;4.70;62.31
83836;BME280;73859;40.830;43.828;2023-11-21T06:47:47;83230.06;;;4.81;62.70
83836;BME280;73859;40.830;43.828;2023-11-21T06:50:15;83237.03;;;5.07;60.07
83836;BME280;73859;40.830;43.828;2023-11-21T06:52:43;83236.13;;;5.30;60.11
83836;BME280;73859;40.830;43.828;2023-11-21T06:55:10;83241.22;;;5.43;59.80
83836;BME280;73859;40.830;43.828;2023-11-21T06:57:38;83243.59;;;5.41;59.77
83836;BME280;73859;40.830;43.828;2023-11-21T07:00:06;83245.69;;;5.30;59.72
83836;BME280;73859;40.830;43.828;2023-11-21T07:02:37;83238.13;;;5.24;59.76
83836;BME280;73859;40.830;43.828;2023-11-21T07:05:06;83240.28;;;5.20;60.16
83836;BME280;73859;40.830;43.828;2023-11-21T07:07:33;83235.84;;;5.08;60.26
83836;BME280;73859;40.830;43.828;2023-11-21T07:10:03;83240.50;;;5.09;60.41
83836;BME280;73859;40.830;43.828;2023-11-21T07:12:32;83236.75;;;5.10;60.30
83836;BME280;73859;40.830;43.828;2023-11-21T07:15:00;83253.91;;;5.15;60.11
83836;BME280;73859;40.830;43.828;2023-11-21T07:17:27;83234.09;;;5.03;59.15
83836;BME280;73859;40.830;43.828;2023-11-21T07:19:55;83262.06;;;5.14;58.33
83836;BME280;73859;40.830;43.828;2023-11-21T07:22:22;83273.81;;;4.96;55.35
83836;BME280;73859;40.830;43.828;2023-11-21T07:24:49;83254.91;;;4.73;55.42
83836;BME280;73859;40.830;43.828;2023-11-21T07:27:18;83237.75;;;4.55;54.53
83836;BME280;73859;40.830;43.828;2023-11-21T07:29:46;83268.78;;;4.64;55.39
83836;BME280;73859;40.830;43.828;2023-11-21T07:32:13;83275.97;;;4.79;54.07
83836;BME280;73859;40.830;43.828;2023-11-21T07:34:41;83280.50;;;4.99;55.02
83836;BME280;73859;40.830;43.828;2023-11-21T07:37:09;83276.19;;;5.20;54.19
83836;BME280;73859;40.830;43.828;2023-11-21T07:39:36;83269.53;;;5.25;54.85
83836;BME280;73859;40.830;43.828;2023-11-21T07:42:04;83248.25;;;5.30;53.89
83836;BME280;73859;40.830;43.828;2023-11-21T07:44:31;83276.16;;;5.33;54.02
83836;BME280;73859;40.830;43.828;2023-11-21T07:46:59;83274.00;;;5.11;55.11
83836;BME280;73859;40.830;43.828;2023-11-21T07:49:26;83273.13;;;4.82;55.00
83836;BME280;73859;40.830;43.828;2023-11-21T07:51:54;83278.34;;;4.64;55.74
83836;BME280;73859;40.830;43.828;2023-11-21T07:54:21;83291.44;;;4.60;55.74
83836;BME280;73859;40.830;43.828;2023-11-21T07:56:48;83289.66;;;4.68;56.24
83836;BME280;73859;40.830;43.828;2023-11-21T07:59:15;83283.66;;;4.79;55.75
83836;BME280;73859;40.830;43.828;2023-11-21T08:01:44;83281.00;;;4.98;56.02
83836;BME280;73859;40.830;43.828;2023-11-21T08:04:12;83274.50;;;5.10;56.39
83836;BME280;73859;40.830;43.828;2023-11-21T08:06:40;83265.13;;;4.99;55.77
83836;BME280;73859;40.830;43.828;2023-11-21T08:09:08;83267.13;;;5.06;56.54
83836;BME280;73859;40.830;43.828;2023-11-21T08:11:36;83265.31;;;5.14;56.42
83836;BME280;73859;40.830;43.828;2023-11-21T08:14:05;83257.06;;;5.08;53.88
83836;BME280;73859;40.830;43.828;2023-11-21T08:16:33;83274.06;;;5.32;53.71
83836;BME280;73859;40.830;43.828;2023-11-21T08:19:00;83271.50;;;5.45;53.17
83836;BME280;73859;40.830;43.828;2023-11-21T08:21:28;83269.75;;;5.27;51.34
83836;BME280;73859;40.830;43.828;2023-11-21T08:23:56;83280.00;;;5.27;51.38
83836;BME280;73859;40.830;43.828;2023-11-21T08:26:23;83276.88;;;5.08;51.69
83836;BME280;73859;40.830;43.828;2023-11-21T08:28:51;83277.56;;;5.08;51.05
83836;BME280;73859;40.830;43.828;2023-11-21T08:31:28;83286.00;;;5.29;52.42
83836;BME280;73859;40.830;43.828;2023-11-21T08:33:56;83268.56;;;5.28;52.34
83836;BME280;73859;40.830;43.828;2023-11-21T08:36:25;83286.94;;;5.79;51.12
83836;BME280;73859;40.830;43.828;2023-11-21T08:38:53;83285.09;;;6.00;50.67
83836;BME280;73859;40.830;43.828;2023-11-21T08:41:20;83289.25;;;6.24;50.45
83836;BME280;73859;40.830;43.828;2023-11-21T08:43:51;83277.53;;;6.36;49.84
83836;BME280;73859;40.830;43.828;2023-11-21T08:46:19;83300.41;;;6.68;49.71
83836;BME280;73859;40.830;43.828;2023-11-21T08:48:47;83301.31;;;6.78;48.97
83836;BME280;73859;40.830;43.828;2023-11-21T08:51:15;83302.47;;;6.69;49.90
83836;BME280;73859;40.830;43.828;2023-11-21T08:53:43;83308.00;;;6.73;48.31
83836;BME280;73859;40.830;43.828;2023-11-21T08:56:13;83307.03;;;6.43;48.58
83836;BME280;73859;40.830;43.828;2023-11-21T08:58:41;83302.53;;;6.35;47.64
83836;BME280;73859;40.830;43.828;2023-11-21T09:01:09;83296.47;;;6.25;48.97
83836;BME280;73859;40.830;43.828;2023-11-21T09:03:36;83307.28;;;6.31;49.30
83836;BME280;73859;40.830;43.828;2023-11-21T09:06:04;83308.16;;;6.13;47.42
83836;BME280;73859;40.830;43.828;2023-11-21T09:08:32;83303.56;;;5.99;47.56
83836;BME280;73859;40.830;43.828;2023-11-21T09:10:59;83311.19;;;5.91;48.73
83836;BME280;73859;40.830;43.828;2023-11-21T09:13:27;83312.72;;;6.07;48.67
83836;BME280;73859;40.830;43.828;2023-11-21T09:15:54;83317.50;;;5.90;47.97
83836;BME280;73859;40.830;43.828;2023-11-21T09:18:22;83317.69;;;5.92;47.94
83836;BME280;73859;40.830;43.828;2023-11-21T09:20:49;83326.19;;;5.74;47.05
83836;BME280;73859;40.830;43.828;2023-11-21T09:23:16;83320.63;;;5.49;46.86
83836;BME280;73859;40.830;43.828;2023-11-21T09:25:43;83282.47;;;5.32;48.87
83836;BME280;73859;40.830;43.828;2023-11-21T09:28:16;83320.50;;;5.68;48.95
83836;BME280;73859;40.830;43.828;2023-11-21T09:30:44;83310.41;;;5.70;49.00
83836;BME280;73859;40.830;43.828;2023-11-21T09:33:11;83306.97;;;5.54;48.47
83836;BME280;73859;40.830;43.828;2023-11-21T09:35:39;83304.53;;;5.49;48.50
83836;BME280;73859;40.830;43.828;2023-11-21T09:38:06;83310.22;;;5.68;48.18
83836;BME280;73859;40.830;43.828;2023-11-21T09:40:38;83319.59;;;5.78;46.00
83836;BME280;73859;40.830;43.828;2023-11-21T09:43:09;83324.22;;;5.93;46.07
83836;BME280;73859;40.830;43.828;2023-11-21T09:45:51;83319.28;;;5.82;46.69
83836;BME280;73859;40.830;43.828;2023-11-21T09:48:22;83341.72;;;5.55;46.51
83836;BME280;73859;40.830;43.828;2023-11-21T09:50:53;83325.84;;;5.30;46.99
83836;BME280;73859;40.830;43.828;2023-11-21T09:53:22;83309.69;;;5.09;47.93
83836;BME280;73859;40.830;43.828;2023-11-21T09:55:52;83338.97;;;5.14;47.79
83836;BME280;73859;40.830;43.828;2023-11-21T09:58:20;83302.91;;;4.99;48.68
83836;BME280;73859;40.830;43.828;2023-11-21T10:00:53;83307.81;;;4.97;49.02
83836;BME280;73859;40.830;43.828;2023-11-21T10:03:21;83345.38;;;5.33;49.07
83836;BME280;73859;40.830;43.828;2023-11-21T10:05:50;83339.06;;;5.61;47.77
83836;BME280;73859;40.830;43.828;2023-11-21T10:08:19;83335.28;;;5.75;47.51
83836;BME280;73859;40.830;43.828;2023-11-21T10:10:52;83339.56;;;6.06;47.51
83836;BME280;73859;40.830;43.828;2023-11-21T10:13:20;83343.69;;;6.09;45.06
83836;BME280;73859;40.830;43.828;2023-11-21T10:15:50;83352.31;;;6.12;45.17
83836;BME280;73859;40.830;43.828;2023-11-21T10:18:18;83355.06;;;6.34;45.33
83836;BME280;73859;40.830;43.828;2023-11-21T10:20:46;83329.47;;;6.21;46.38
83836;BME280;73859;40.830;43.828;2023-11-21T10:23:24;83340.38;;;6.35;45.54
83836;BME280;73859;40.830;43.828;2023-11-21T10:25:52;83363.94;;;6.47;46.05
83836;BME280;73859;40.830;43.828;2023-11-21T10:28:21;83349.34;;;6.83;45.57
83836;BME280;73859;40.830;43.828;2023-11-21T10:30:48;83363.53;;;7.25;45.37
83836;BME280;73859;40.830;43.828;2023-11-21T10:33:16;83370.31;;;7.15;43.14
83836;BME280;73859;40.830;43.828;2023-11-21T10:35:45;83370.84;;;6.72;43.92
83836;BME280;73859;40.830;43.828;2023-11-21T10:38:22;83345.44;;;6.27;45.06
83836;BME280;73859;40.830;43.828;2023-11-21T10:40:51;83361.69;;;6.43;44.53
83836;BME280;73859;40.830;43.828;2023-11-21T10:43:19;83362.28;;;6.15;45.42
83836;BME280;73859;40.830;43.828;2023-11-21T10:45:47;83363.25;;;6.12;45.92
83836;BME280;73859;40.830;43.828;2023-11-21T10:48:15;83380.97;;;6.36;46.09
83836;BME280;73859;40.830;43.828;2023-11-21T10:50:46;83390.16;;;6.32;45.45
83836;BME280;73859;40.830;43.828;2023-11-21T10:53:14;83407.97;;;6.17;44.96
83836;BME280;73859;40.830;43.828;2023-11-21T10:55:42;83404.88;;;6.31;45.05
83836;BME280;73859;40.830;43.828;2023-11-21T10:58:14;83398.81;;;6.42;45.67
83836;BME280;73859;40.830;43.828;2023-11-21T11:00:42;83402.44;;;6.26;45.93
83836;BME280;73859;40.830;43.828;2023-11-21T11:03:12;83406.63;;;6.03;44.54
83836;BME280;73859;40.830;43.828;2023-11-21T11:05:44;83390.13;;;5.85;45.02
83836;BME280;73859;40.830;43.828;2023-11-21T11:08:21;83408.09;;;5.85;45.96
83836;BME280;73859;40.830;43.828;2023-11-21T11:10:55;83435.44;;;5.96;46.80
83836;BME280;73859;40.830;43.828;2023-11-21T11:13:23;83441.56;;;5.53;44.32
83836;BME280;73859;40.830;43.828;2023-11-21T11:15:57;83425.03;;;5.09;45.51
83836;BME280;73859;40.830;43.828;2023-11-21T11:18:28;83445.38;;;5.20;45.48
83836;BME280;73859;40.830;43.828;2023-11-21T11:21:27;83453.22;;;5.09;45.97
83836;BME280;73859;40.830;43.828;2023-11-21T11:32:32;83474.28;;;4.70;45.89
83836;BME280;73859;40.830;43.828;2023-11-21T11:35:17;83463.69;;;4.61;46.14
83836;BME280;73859;40.830;43.828;2023-11-21T11:37:46;83482.00;;;4.52;46.38
83836;BME280;73859;40.830;43.828;2023-11-21T11:40:14;83486.47;;;4.45;47.02
83836;BME280;73859;40.830;43.828;2023-11-21T11:42:58;83490.28;;;4.39;47.59
83836;BME280;73859;40.830;43.828;2023-11-21T11:45:32;83470.84;;;4.30;46.99
83836;BME280;73859;40.830;43.828;2023-11-21T11:48:01;83457.38;;;4.11;47.46
83836;BME280;73859;40.830;43.828;2023-11-21T11:50:31;83490.38;;;4.33;48.19
83836;BME280;73859;40.830;43.828;2023-11-21T11:53:14;83491.19;;;4.41;48.31
83836;BME280;73859;40.830;43.828;2023-11-21T11:55:43;83483.84;;;4.32;48.58
83836;BME280;73859;40.830;43.828;2023-11-21T11:58:10;83487.25;;;4.22;48.74
83836;BME280;73859;40.830;43.828;2023-11-21T12:00:38;83505.03;;;4.14;49.36
83836;BME280;73859;40.830;43.828;2023-11-21T12:03:08;83487.56;;;3.94;49.95
83836;BME280;73859;40.830;43.828;2023-11-21T12:05:36;83507.41;;;3.88;50.52
83836;BME280;73859;40.830;43.828;2023-11-21T12:08:08;83511.22;;;3.76;50.89
83836;BME280;73859;40.830;43.828;2023-11-21T12:10:38;83507.41;;;3.64;51.68
83836;BME280;73859;40.830;43.828;2023-11-21T12:13:09;83513.06;;;3.57;51.62
83836;BME280;73859;40.830;43.828;2023-11-21T12:15:40;83511.19;;;3.57;51.22
83836;BME280;73859;40.830;43.828;2023-11-21T12:18:09;83498.41;;;3.33;51.72
83836;BME280;73859;40.830;43.828;2023-11-21T12:20:36;83519.47;;;3.39;51.26
83836;BME280;73859;40.830;43.828;2023-11-21T12:23:07;83526.22;;;3.42;51.44
83836;BME280;73859;40.830;43.828;2023-11-21T12:25:36;83505.25;;;3.19;52.09
83836;BME280;73859;40.830;43.828;2023-11-21T12:28:04;83536.16;;;3.45;50.82
83836;BME280;73859;40.830;43.828;2023-11-21T12:30:33;83540.75;;;3.53;49.54
83836;BME280;73859;40.830;43.828;2023-11-21T12:33:03;83529.34;;;3.54;49.17
83836;BME280;73859;40.830;43.828;2023-11-21T12:35:33;83527.75;;;3.51;48.36
83836;BME280;73859;40.830;43.828;2023-11-21T12:38:02;83541.50;;;3.47;49.01
83836;BME280;73859;40.830;43.828;2023-11-21T12:40:30;83544.69;;;3.54;49.06
83836;BME280;73859;40.830;43.828;2023-11-21T12:42:59;83563.75;;;3.53;49.22
83836;BME280;73859;40.830;43.828;2023-11-21T12:45:29;83555.44;;;3.46;49.10
83836;BME280;73859;40.830;43.828;2023-11-21T12:48:03;83544.84;;;3.37;49.62
83836;BME280;73859;40.830;43.828;2023-11-21T12:50:37;83542.91;;;3.43;49.54
83836;BME280;73859;40.830;43.828;2023-11-21T12:53:10;83542.19;;;3.48;48.72
83836;BME280;73859;40.830;43.828;2023-11-21T12:55:39;83559.50;;;3.61;48.12
83836;BME280;73859;40.830;43.828;2023-11-21T12:58:10;83563.28;;;3.54;48.46
83836;BME280;73859;40.830;43.828;2023-11-21T13:00:40;83567.06;;;3.47;48.05
83836;BME280;73859;40.830;43.828;2023-11-21T13:03:12;83562.25;;;3.38;48.30
83836;BME280;73859;40.830;43.828;2023-11-21T13:05:44;83556.31;;;3.25;47.40
83836;BME280;73859;40.830;43.828;2023-11-21T13:08:15;83550.59;;;3.13;47.57
83836;BME280;73859;40.830;43.828;2023-11-21T13:10:53;83554.97;;;3.18;47.48
83836;BME280;73859;40.830;43.828;2023-11-21T13:13:23;83561.97;;;3.12;47.63
83836;BME280;73859;40.830;43.828;2023-11-21T13:15:59;83571.03;;;3.13;46.61